Aucune veille ou alerte en vigueur pour Lanaudière, QC.

Rapports Métar

 

CWEW - L'assomption, Quebec, Canada
Distance de la station: SSE 46km
Mise à jour: 20/05/2022 01:00

 Vents de SO
Vent: SO 4 km/h
Température: 8°C
Point de rosée: 8°C
Humidité: 100%
2022/05/20 05:00 CWEW 200500Z AUTO 22002KT 08/08 RMK AO1 SLP100 T00820079 53010
CWHM - Varennes, Quebec, Canada
Distance de la station: SSE 58km
Mise à jour: 25/10/2016 10:00
PAS à jour

 Vents de O
Vent: O 19 km/h, Rafale: 28 km/h
Température: 4°C
Refroidissement éolien: 0°C
Point de rosée: -2°C
Humidité: 65%
2016/10/25 14:00 CWHM 251400Z AUTO 28010G15KT 04/M02 RMK AO1 PK WND 28018/1302 T00391017
 
CWBS - Lac St Pierre (a, Quebec, Canada
Distance de la station: E 60km
Mise à jour: 20/05/2022 01:00

 Vents de S
Vent: S 2 km/h
Température: 11°C
Point de rosée: 8°C
Humidité: 82%
2022/05/20 05:00 CWBS 200500Z AUTO 19001KT 11/08 RMK AO1 T01110075
CYMX - Montreal/Mirabel, Quebec, Canada
Distance de la station: SSO 62km
Mise à jour: 20/05/2022 01:00
couvert
couvert
 Vents de variable
Vent: variable 4 km/h
Température: 9°C
Point de rosée: 9°C
Humidité: 100%
Baromètre: 1008.8 hPa
Nuages: couvert
Visibilité: 16 km
Détail des nuages: partiellement nuageux 610 m
couvert 1402 m
2022/05/20 05:00 CYMX 200500Z VRB02KT 10SM SCT020 OVC046 09/09 A2979 RMK SC3SC5 SLP093
 
CWJT - St Jovite (autob, Quebec, Canada
Distance de la station: OSO 64km
Mise à jour: 20/05/2022 19:00

 Vents de S
Vent: S 2 km/h
Température: 12°C
Point de rosée: 9°C
Humidité: 82%
2022/05/20 23:00 CWJT 202300Z AUTO 18001KT 12/09 RMK AO1 SLP050 T01200093 51005
CWTA - Mc Tavish (aut), Quebec, Canada
Distance de la station: S 77km
Mise à jour: 20/05/2022 01:00

 Vents de ONO
Vent: ONO 4 km/h
Température: 11°C
Point de rosée: 10°C
Humidité: 94%
2022/05/20 05:00 CWTA 200500Z AUTO 29002KT 11/10 RMK AO1 SLP092 T01070098 53011
 
CYHU - Saint Hubert Arp, Quebec, Canada
Distance de la station: SSE 77km
Mise à jour: 20/05/2022 01:14
Mist, couvert
Mist, couvert
 Vents de calm
Vent: calme
Température: 11°C
Point de rosée: 10°C
Humidité: 94%
Baromètre: 1009.1 hPa
Résumé: Mist
Nuages: couvert
Visibilité: 10 km
Détail des nuages: partiellement nuageux 427 m
couvert 1524 m
2022/05/20 05:14 CYHU 200514Z AUTO 00000KT 6SM BR SCT014 OVC050 11/10 A2980 RMK SLP093
CYUL - Montreal/Dorval, Quebec, Canada
Distance de la station: S 80km
Mise à jour: 20/05/2022 01:00
couvert
couvert
 Vents de OSO
Vent: OSO 4 km/h
Température: 11°C
Point de rosée: 10°C
Humidité: 94%
Baromètre: 1008.8 hPa
Nuages: couvert
Visibilité: 24 km
Détail des nuages: partiellement nuageux 792 m
couvert 1524 m
2022/05/20 05:00 CYUL 200500Z 24002KT 15SM SCT026 OVC050 11/10 A2979 RMK SC3SC5 SLP092
 
CWNQ - Nicolet (autob), Quebec, Canada
Distance de la station: E 81km
Mise à jour: 20/05/2022 01:00

 Vents de ESE
Vent: ESE 4 km/h
Température: 10°C
Point de rosée: 10°C
Humidité: 100%
2022/05/20 05:00 CWNQ 200500Z AUTO 11002KT 10/10 RMK AO1 SLP093 T01010100 53009
CWVQ - Ste Anne De Bell, Quebec, Canada
Distance de la station: S 87km
Mise à jour: 20/05/2022 01:00

 Vents de SO
Vent: SO 4 km/h
Température: 11°C
Point de rosée: 10°C
Humidité: 94%
2022/05/20 05:00 CWVQ 200500Z AUTO 22002KT 11/10 RMK AO1 SLP092 T01130095 51013
 
CWTY - Trois Rivieres, Quebec, Canada
Distance de la station: ENE 93km
Mise à jour: 20/05/2022 01:00

 Vents de SE
Vent: SE 7 km/h
Température: 11°C
Point de rosée: 8°C
Humidité: 82%
2022/05/20 05:00 CWTY 200500Z AUTO 14004KT 11/08 RMK AO1 SLP094 T01070075 53006
CXSH - Shawinigan, Quebec, Canada
Distance de la station: ENE 97km
Mise à jour: 20/05/2022 01:00

 Vents de S
Vent: S 2 km/h
Température: 9°C
Point de rosée: 7°C
Humidité: 87%
2022/05/20 05:00 CXSH 200500Z AUTO 17001KT 09/07 RMK AO1 SLP094 T00860068 53009
 
CWIZ - L'acadie, Quebec, Canada
Distance de la station: SSE 104km
Mise à jour: 20/05/2022 01:00

 Vents de O
Vent: O 4 km/h
Température: 11°C
Point de rosée: 10°C
Humidité: 94%
2022/05/20 05:00 CWIZ 200500Z AUTO 26002KT 11/10 RMK AO1 T01100104 50002
CWIT - St Clothilde (a, Quebec, Canada
Distance de la station: S 113km
Mise à jour: 20/05/2022 01:00

 Vents de O
Vent: O 6 km/h
Température: 11°C
Point de rosée: 10°C
Humidité: 94%
2022/05/20 05:00 CWIT 200500Z AUTO 27003KT 11/10 RMK AO1 3013 SLP093 T01090101 50008
 
CMGB - Granby, Quebec, Canada
Distance de la station: SE 116km
Mise à jour: 20/05/2022 01:00

 Vents de SSO
Vent: SSO 2 km/h
Température: 10°C
Point de rosée: 10°C
Humidité: 100%
2022/05/20 05:00 CMGB 200500Z AUTO 20001KT 10/10 RMK AO1 SLP095 T01010095
CWBZ - St Anicet, Quebec, Canada
Distance de la station: SSO 127km
Mise à jour: 20/05/2022 01:00

 Vents de OSO
Vent: OSO 4 km/h
Température: 9°C
Point de rosée: 9°C
Humidité: 100%
2022/05/20 05:00 CWBZ 200500Z AUTO 24002KT 09/09 RMK AO1 SLP092 T00910089 51014
 
CWHQ - Deschambaults, Quebec, Canada
Distance de la station: ENE 144km
Mise à jour: 20/05/2022 01:00

 Vents de calm
Vent: calme
Température: 7°C
Point de rosée: 6°C
Humidité: 93%
2022/05/20 05:00 CWHQ 200500Z AUTO 00000KT 07/06 RMK AO1 T00740059
CWFQ - Frelighsburg, Quebec, Canada
Distance de la station: SSE 145km
Mise à jour: 20/05/2022 01:00

 Vents de ONO
Vent: ONO 2 km/h
Température: 10°C
Point de rosée: 10°C
Humidité: 100%
2022/05/20 05:00 CWFQ 200500Z AUTO 29001KT 10/10 RMK AO1 2PAST HR 3010 SLP095 P0001 T00990096 50002
 
KFSO - Highgate, Vermont, USA
Distance de la station: SSE 147km
Mise à jour: 20/05/2022 00:55

 Vents de calm
Vent: calme
Température: 11°C
Point de rosée: 11°C
Humidité: 100%
Baromètre: 1009.5 hPa
Visibilité: 16 km
2022/05/20 04:55 KFSO 200455Z AUTO 00000KT 10SM 11/11 A2981 RMK AO2 T01110105 401660056
CWDQ - La Tuque, Quebec, Canada
Distance de la station: NNE 154km
Mise à jour: 20/05/2022 01:00

 Vents de ESE
Vent: ESE 4 km/h
Température: 8°C
Point de rosée: 5°C
Humidité: 82%
2022/05/20 05:00 CWDQ 200500Z AUTO 12002KT 08/05 RMK AO1 SLP093 T00760049 51019